Terminal Aerodrome Forecast
Issued by NWS

Home | Current Version | Previous Version | Text Only | Print | Product List | Glossary On
Versions: 1 2 3 4 5 6 7 8 9 10 11 12 13 14 15 16
000
FTUS41 KBTV 211100
TAFMPV
TAF
KMPV 211131Z 2112/2212 VRB03KT P6SM -SHRA OVC040
     FM211700 14006KT 6SM -RA BR OVC030
     FM220600 02005KT P6SM -RA OVC015=

USA.gov is the U.S. government's official web portal to all federal, state and local government web resources and services.